createdAt,value
2023-01-19T00:01:45.173Z,70.27
2023-01-19T00:06:47.120Z,70.29
2023-01-19T00:11:49.016Z,70.02
2023-01-19T00:16:51.205Z,70.17
2023-01-19T00:21:53.107Z,69.86
2023-01-19T00:26:55.030Z,69.94
2023-01-19T00:31:57.067Z,69.97
2023-01-19T00:37:02.168Z,69.71
2023-01-19T00:42:22.297Z,69.35
2023-01-19T00:47:24.187Z,69.44
2023-01-19T00:52:25.934Z,69.66
2023-01-19T00:57:29.825Z,69.57
2023-01-19T01:02:32.099Z,69.52
2023-01-19T01:07:43.142Z,69.38
2023-01-19T01:12:56.908Z,69.12
2023-01-19T01:18:00.971Z,69.20
2023-01-19T01:23:03.889Z,69.38
2023-01-19T01:28:08.867Z,69.19
2023-01-19T01:33:11.953Z,69.10
2023-01-19T01:38:13.892Z,69.07
2023-01-19T01:43:17.977Z,69.17
2023-01-19T01:48:30.992Z,69.18
2023-01-19T01:53:34.948Z,68.95
2023-01-19T01:58:38.771Z,68.99
2023-01-19T02:03:41.054Z,69.08
2023-01-19T02:09:07.270Z,68.89
2023-01-19T02:14:09.367Z,68.90
2023-01-19T02:19:16.998Z,68.91
2023-01-19T02:24:19.175Z,68.82
2023-01-19T02:29:25.169Z,68.44
2023-01-19T02:34:27.020Z,68.75
2023-01-19T02:39:39.315Z,68.60
2023-01-19T02:44:45.721Z,68.81
2023-01-19T02:50:01.147Z,68.56
2023-01-19T02:55:15.451Z,68.66
2023-01-19T03:00:33.046Z,68.59
2023-01-19T03:06:06.685Z,68.54
2023-01-19T03:11:11.455Z,68.26
2023-01-19T03:16:21.864Z,68.45
2023-01-19T03:21:27.882Z,68.43
2023-01-19T03:26:34.379Z,68.32
2023-01-19T03:31:38.092Z,68.29
2023-01-19T03:36:52.720Z,68.39
2023-01-19T03:42:00.684Z,68.05
2023-01-19T03:47:04.992Z,68.08
2023-01-19T03:52:12.993Z,67.93
2023-01-19T03:57:14.921Z,67.68
2023-01-19T04:02:16.905Z,67.72
2023-01-19T04:07:19.960Z,67.71
2023-01-19T04:12:21.894Z,67.59
2023-01-19T04:17:23.752Z,67.63
2023-01-19T04:22:25.683Z,67.50
2023-01-19T04:27:29.634Z,67.35
2023-01-19T04:32:32.549Z,67.26
2023-01-19T04:37:34.350Z,67.32
2023-01-19T04:42:36.209Z,67.21
2023-01-19T04:47:38.176Z,67.29
2023-01-19T04:52:39.949Z,66.86
2023-01-19T04:57:42.476Z,67.11
2023-01-19T05:02:47.732Z,66.72
2023-01-19T05:07:49.755Z,66.79
2023-01-19T05:12:52.879Z,66.90
2023-01-19T05:17:55.330Z,66.55
2023-01-19T05:22:58.250Z,66.24
2023-01-19T05:28:00.765Z,66.42
2023-01-19T05:33:03.271Z,66.10
2023-01-19T05:38:05.655Z,66.16
2023-01-19T05:43:07.507Z,66.18
2023-01-19T05:48:10.233Z,65.94
2023-01-19T05:53:12.112Z,65.83
2023-01-19T05:58:13.945Z,65.83
2023-01-19T06:03:15.905Z,65.87
2023-01-19T06:08:17.913Z,65.77
2023-01-19T06:13:19.881Z,65.66
2023-01-19T06:18:21.733Z,65.70
2023-01-19T06:23:24.639Z,65.64
2023-01-19T06:28:26.920Z,65.58
2023-01-19T06:33:28.909Z,65.33
2023-01-19T06:38:30.853Z,65.31
2023-01-19T06:43:32.840Z,65.33
2023-01-19T06:48:34.662Z,65.31
2023-01-19T06:53:36.726Z,65.25
2023-01-19T06:58:38.753Z,65.09
2023-01-19T07:03:40.619Z,65.12
2023-01-19T07:08:42.654Z,65.34
2023-01-19T07:13:46.886Z,65.30
2023-01-19T07:18:49.522Z,65.41
2023-01-19T07:23:52.909Z,65.47
2023-01-19T07:28:55.065Z,65.47
2023-01-19T07:33:58.096Z,65.50
2023-01-19T07:39:00.109Z,65.39
2023-01-19T07:44:01.962Z,65.50
2023-01-19T07:49:04.152Z,65.61
2023-01-19T07:54:08.556Z,65.57
2023-01-19T07:59:11.192Z,65.57
2023-01-19T08:04:13.547Z,65.39
2023-01-19T08:09:15.397Z,65.28
2023-01-19T08:14:17.180Z,65.44
2023-01-19T08:19:19.589Z,65.39
2023-01-19T08:24:23.782Z,65.47
2023-01-19T08:29:26.144Z,65.46
2023-01-19T08:34:28.006Z,65.58
2023-01-19T08:39:29.852Z,65.62
2023-01-19T08:44:31.687Z,65.46
2023-01-19T08:49:33.806Z,65.63
2023-01-19T08:54:36.086Z,65.85
2023-01-19T08:59:38.306Z,65.83
2023-01-19T09:04:40.166Z,65.71
2023-01-19T09:09:43.585Z,65.67
2023-01-19T09:14:45.736Z,65.79
2023-01-19T09:19:47.667Z,65.42
2023-01-19T09:24:50.180Z,65.83
2023-01-19T09:29:54.881Z,65.70
2023-01-19T09:34:56.931Z,65.80
2023-01-19T09:39:58.908Z,65.88
2023-01-19T09:45:05.090Z,65.92
2023-01-19T09:50:18.597Z,65.84
2023-01-19T09:55:32.370Z,66.00
2023-01-19T10:00:35.363Z,65.92
2023-01-19T10:05:48.997Z,66.25
2023-01-19T10:10:56.919Z,66.12
2023-01-19T10:16:14.525Z,66.05
2023-01-19T10:21:31.638Z,66.08
2023-01-19T10:26:39.022Z,65.88
2023-01-19T10:31:44.346Z,65.96
2023-01-19T10:36:49.559Z,65.66
2023-01-19T10:41:54.022Z,65.69
2023-01-19T10:46:58.890Z,65.52
2023-01-19T10:52:00.966Z,65.74
2023-01-19T10:57:09.780Z,65.45
2023-01-19T11:02:18.027Z,65.40
2023-01-19T11:07:26.131Z,65.42
2023-01-19T11:12:27.888Z,65.50
2023-01-19T11:17:29.960Z,65.75
2023-01-19T11:22:33.679Z,65.79
2023-01-19T11:27:37.886Z,65.60
2023-01-19T11:32:39.908Z,65.83
2023-01-19T11:37:43.350Z,65.74
2023-01-19T11:42:45.199Z,65.62
2023-01-19T11:47:56.962Z,65.81
2023-01-19T11:53:11.129Z,65.67
2023-01-19T11:58:16.620Z,65.81
2023-01-19T12:03:24.106Z,66.12
2023-01-19T12:08:33.396Z,65.82
2023-01-19T12:13:36.410Z,65.90
2023-01-19T12:18:47.206Z,66.01
2023-01-19T12:24:16.166Z,66.02
2023-01-19T12:29:24.182Z,66.03
2023-01-19T12:34:27.274Z,66.24
2023-01-19T12:39:29.555Z,65.86
2023-01-19T12:44:34.410Z,66.10
2023-01-19T12:50:08.733Z,66.25
2023-01-19T12:55:13.616Z,66.21
2023-01-19T13:00:21.663Z,66.25
2023-01-19T13:05:32.501Z,66.14
2023-01-19T13:10:53.432Z,66.17
2023-01-19T13:15:56.310Z,66.25
2023-01-19T13:21:03.527Z,65.90
2023-01-19T13:26:27.567Z,65.68
2023-01-19T13:31:38.753Z,65.68
2023-01-19T13:36:45.118Z,65.73
2023-01-19T13:41:52.783Z,65.55
2023-01-19T13:46:56.535Z,65.61
2023-01-19T13:52:05.437Z,65.68
2023-01-19T13:57:29.127Z,65.95
2023-01-19T14:02:31.483Z,65.67
2023-01-19T14:07:33.630Z,66.05
2023-01-19T14:12:39.069Z,65.68
2023-01-19T14:17:45.595Z,65.52
2023-01-19T14:22:49.091Z,65.36
2023-01-19T14:27:50.951Z,65.42
2023-01-19T14:32:53.142Z,65.54
2023-01-19T14:37:55.007Z,65.54
2023-01-19T14:43:04.297Z,65.51
2023-01-19T14:48:20.627Z,65.49
2023-01-19T14:53:25.783Z,65.81
2023-01-19T14:58:35.302Z,65.93
2023-01-19T15:03:45.685Z,65.66
2023-01-19T15:08:50.395Z,65.34
2023-01-19T15:13:53.192Z,65.59
2023-01-19T15:18:55.486Z,65.55
2023-01-19T15:23:58.712Z,65.44
2023-01-19T15:29:00.599Z,65.32
2023-01-19T15:34:02.442Z,65.06
2023-01-19T15:39:04.333Z,65.27
2023-01-19T15:44:08.604Z,65.16
2023-01-19T15:49:10.784Z,65.05
2023-01-19T15:54:16.566Z,64.80
2023-01-19T15:59:18.395Z,65.09
2023-01-19T16:04:20.381Z,65.02
2023-01-19T16:09:22.446Z,64.99
2023-01-19T16:14:24.462Z,65.13
2023-01-19T16:19:26.337Z,65.08
2023-01-19T16:24:28.170Z,65.24
2023-01-19T16:29:31.253Z,65.21
2023-01-19T16:34:33.476Z,65.15
2023-01-19T16:39:35.371Z,64.91
2023-01-19T16:44:37.368Z,64.99
2023-01-19T16:49:40.474Z,65.15
2023-01-19T16:54:43.725Z,65.23
2023-01-19T16:59:45.563Z,65.37
2023-01-19T17:04:49.356Z,65.43
2023-01-19T17:09:51.150Z,65.62
2023-01-19T17:14:53.018Z,65.50
2023-01-19T17:19:55.111Z,65.41
2023-01-19T17:24:56.960Z,65.35
2023-01-19T17:29:58.802Z,65.66
2023-01-19T17:35:00.616Z,65.65
2023-01-19T17:40:02.397Z,65.41
2023-01-19T17:45:04.369Z,65.35
2023-01-19T17:50:06.473Z,65.37
2023-01-19T17:55:08.833Z,65.44
2023-01-19T18:00:11.575Z,65.38
2023-01-19T18:05:17.119Z,65.47
2023-01-19T18:10:19.310Z,65.08
2023-01-19T18:15:21.074Z,65.44
2023-01-19T18:20:22.811Z,65.65
2023-01-19T18:25:24.673Z,65.82
2023-01-19T18:30:26.555Z,66.10
2023-01-19T18:35:28.887Z,66.23
2023-01-19T18:40:30.816Z,66.31
2023-01-19T18:45:32.662Z,66.43
2023-01-19T18:50:34.561Z,66.57
2023-01-19T18:55:36.826Z,66.85
2023-01-19T19:00:38.820Z,66.72
2023-01-19T19:05:40.964Z,66.82
2023-01-19T19:10:43.202Z,66.87
2023-01-19T19:15:45.071Z,66.80
2023-01-19T19:20:46.991Z,66.77
2023-01-19T19:25:48.880Z,67.06
2023-01-19T19:31:06.501Z,67.02
2023-01-19T19:36:10.072Z,67.13
2023-01-19T19:41:15.521Z,67.13
2023-01-19T19:46:20.203Z,67.31
2023-01-19T19:51:23.787Z,67.23
2023-01-19T19:56:28.113Z,67.15
2023-01-19T20:01:33.486Z,67.30
2023-01-19T20:06:39.951Z,67.39
2023-01-19T20:11:44.675Z,67.41
2023-01-19T20:16:46.769Z,67.54
2023-01-19T20:21:48.742Z,67.69
2023-01-19T20:26:52.926Z,67.83
2023-01-19T20:31:56.348Z,68.05
2023-01-19T20:36:59.330Z,67.92
2023-01-19T20:42:02.258Z,68.01
2023-01-19T20:47:06.512Z,68.00
2023-01-19T20:52:08.737Z,68.01
2023-01-19T20:57:10.563Z,68.24
2023-01-19T21:02:15.181Z,68.03
2023-01-19T21:07:18.126Z,68.53
2023-01-19T21:12:21.483Z,68.08
2023-01-19T21:17:23.338Z,68.27
2023-01-19T21:22:25.246Z,68.33
2023-01-19T21:27:27.203Z,68.44
2023-01-19T21:32:29.650Z,68.34
2023-01-19T21:37:31.540Z,68.72
2023-01-19T21:42:33.326Z,68.56
2023-01-19T21:47:36.628Z,68.77
2023-01-19T21:52:40.178Z,68.70
2023-01-19T21:57:42.006Z,69.06
2023-01-19T22:02:49.446Z,69.06
2023-01-19T22:08:00.437Z,68.99
2023-01-19T22:13:02.364Z,69.18
2023-01-19T22:18:04.241Z,69.06
2023-01-19T22:23:06.217Z,69.12
2023-01-19T22:28:08.094Z,69.42
2023-01-19T22:33:09.972Z,69.25
2023-01-19T22:38:11.809Z,69.46
2023-01-19T22:43:13.836Z,69.35
2023-01-19T22:48:15.673Z,69.30
2023-01-19T22:53:17.453Z,69.04
2023-01-19T22:58:20.188Z,69.45
2023-01-19T23:03:21.959Z,69.40
2023-01-19T23:08:23.764Z,69.51
2023-01-19T23:13:25.726Z,69.24
2023-01-19T23:18:27.909Z,69.64
2023-01-19T23:23:29.845Z,69.65
2023-01-19T23:28:34.151Z,69.66
2023-01-19T23:33:36.129Z,69.66
2023-01-19T23:38:38.485Z,69.66
2023-01-19T23:43:40.379Z,69.60
2023-01-19T23:48:42.431Z,69.85
2023-01-19T23:53:45.075Z,69.69
2023-01-19T23:58:49.158Z,70.02
